Time;durP1;ratioP1;P1;durP2;ratioP2;P2;SDS_P1;SDS_P2;PMS_P1;PMS_P2;Temp;Humidity;BMP_temperature;BMP_pressure;BME280_temperature;BME280_humidity;BME280_pressure;Samples;Min_cycle;Max_cycle;Signal;HPM_P1;HPM_P2
2023/06/02 00:02:29;;;;;;;12.77;3.10;;;;;;;;;;5056178;28;25056;-71
2023/06/02 00:04:57;;;;;;;9.45;3.50;;;;;;;;;;5043616;28;25109;-70
2023/06/02 00:07:25;;;;;;;10.48;3.70;;;;;;;;;;5035530;28;25071;-69
2023/06/02 00:09:51;;;;;;;8.70;2.53;;;;;;;;;;5036692;28;25083;-71
2023/06/02 00:12:17;;;;;;;17.95;3.50;;;;;;;;;;5034907;28;25074;-71
2023/06/02 00:14:44;;;;;;;5.47;2.40;;;;;;;;;;5038202;28;25073;-69
2023/06/02 00:17:10;;;;;;;18.60;3.35;;;;;;;;;;5034895;28;25057;-69
2023/06/02 00:19:37;;;;;;;12.90;3.55;;;;;;;;;;5036106;28;25066;-70
2023/06/02 00:22:06;;;;;;;15.93;3.17;;;;;;;;;;5037054;28;25074;-71
2023/06/02 00:24:32;;;;;;;8.88;3.75;;;;;;;;;;5035827;28;25149;-71
2023/06/02 00:26:58;;;;;;;11.45;2.88;;;;;;;;;;5034854;28;25123;-70
2023/06/02 00:29:24;;;;;;;18.02;3.65;;;;;;;;;;5032963;28;25074;-69
2023/06/02 00:31:50;;;;;;;9.75;3.05;;;;;;;;;;5034560;28;25101;-69
2023/06/02 00:34:16;;;;;;;13.18;2.88;;;;;;;;;;5033545;28;25066;-69
2023/06/02 00:36:42;;;;;;;10.07;2.65;;;;;;;;;;5037383;28;25121;-69
2023/06/02 00:39:08;;;;;;;8.40;3.15;;;;;;;;;;5034244;28;25081;-69
2023/06/02 00:41:34;;;;;;;14.43;2.75;;;;;;;;;;5034337;28;25079;-70
2023/06/02 00:44:00;;;;;;;12.05;2.90;;;;;;;;;;5032867;28;25065;-70
2023/06/02 00:46:26;;;;;;;10.07;2.97;;;;;;;;;;5034178;28;25073;-72
2023/06/02 00:48:53;;;;;;;12.88;3.67;;;;;;;;;;5033873;28;25053;-69
2023/06/02 00:51:19;;;;;;;15.40;3.65;;;;;;;;;;5033782;28;25125;-69
2023/06/02 00:53:45;;;;;;;12.43;3.03;;;;;;;;;;5034752;28;25063;-71
2023/06/02 00:56:14;;;;;;;36.95;6.18;;;;;;;;;;5033708;28;25065;-70
2023/06/02 00:58:43;;;;;;;11.27;3.25;;;;;;;;;;5033067;28;25086;-70
2023/06/02 01:01:10;;;;;;;15.20;4.85;;;;;;;;;;5033339;28;25051;-70
2023/06/02 01:03:37;;;;;;;12.43;2.95;;;;;;;;;;5031590;28;25054;-70
2023/06/02 01:06:04;;;;;;;17.13;3.85;;;;;;;;;;5035883;28;25153;-70
2023/06/02 01:08:31;;;;;;;20.48;3.28;;;;;;;;;;5033138;28;25153;-71
2023/06/02 01:10:58;;;;;;;13.43;3.10;;;;;;;;;;5034085;28;25145;-71
2023/06/02 01:13:24;;;;;;;19.73;3.25;;;;;;;;;;5032471;28;25072;-69
2023/06/02 01:15:50;;;;;;;17.50;4.13;;;;;;;;;;5035952;28;25078;-70
2023/06/02 01:18:17;;;;;;;8.32;3.05;;;;;;;;;;5034612;28;25052;-72
2023/06/02 01:20:44;;;;;;;11.60;4.45;;;;;;;;;;5035036;28;25159;-70
2023/06/02 01:23:15;;;;;;;14.07;3.38;;;;;;;;;;5031724;28;25065;-69
2023/06/02 01:25:41;;;;;;;17.15;3.42;;;;;;;;;;5034844;28;25059;-70
2023/06/02 01:28:07;;;;;;;14.45;3.75;;;;;;;;;;5031121;28;25055;-72
2023/06/02 01:30:33;;;;;;;10.25;4.18;;;;;;;;;;5035888;28;25115;-70
2023/06/02 01:33:06;;;;;;;15.63;3.72;;;;;;;;;;5034860;28;24827;-70
2023/06/02 01:35:36;;;;;;;7.93;2.90;;;;;;;;;;5049310;28;25049;-69
2023/06/02 01:38:02;;;;;;;20.92;3.10;;;;;;;;;;5050269;28;25067;-71
2023/06/02 01:40:29;;;;;;;15.05;4.00;;;;;;;;;;5051180;28;25072;-70
2023/06/02 01:42:56;;;;;;;13.60;3.78;;;;;;;;;;5051173;28;25042;-72
2023/06/02 01:45:24;;;;;;;12.63;3.42;;;;;;;;;;5032841;28;25066;-71
2023/06/02 01:47:50;;;;;;;13.75;3.33;;;;;;;;;;5049763;28;25075;-71
2023/06/02 01:50:16;;;;;;;8.52;2.95;;;;;;;;;;5025045;28;25072;-70
2023/06/02 01:52:42;;;;;;;12.73;3.55;;;;;;;;;;5040398;28;25116;-71
2023/06/02 01:55:08;;;;;;;13.65;3.00;;;;;;;;;;5041736;28;25128;-70
2023/06/02 01:57:34;;;;;;;10.73;3.40;;;;;;;;;;5021998;28;25054;-70
2023/06/02 02:00:01;;;;;;;6.03;2.78;;;;;;;;;;5034373;28;25055;-74
2023/06/02 02:02:27;;;;;;;18.40;5.75;;;;;;;;;;5033350;28;25074;-69
2023/06/02 02:04:53;;;;;;;13.95;3.67;;;;;;;;;;5034713;28;25083;-71
2023/06/02 02:07:19;;;;;;;8.90;3.15;;;;;;;;;;5019504;28;25194;-72
2023/06/02 02:09:46;;;;;;;15.20;4.10;;;;;;;;;;5034730;28;25109;-73
2023/06/02 02:12:12;;;;;;;15.32;5.30;;;;;;;;;;5034304;28;25133;-71
2023/06/02 02:14:38;;;;;;;13.23;3.60;;;;;;;;;;5035364;28;25056;-71
2023/06/02 02:17:04;;;;;;;13.15;3.95;;;;;;;;;;5036123;28;25080;-71
2023/06/02 02:19:31;;;;;;;11.98;3.42;;;;;;;;;;5053071;28;25157;-72
2023/06/02 02:21:57;;;;;;;12.98;3.42;;;;;;;;;;5062177;28;25087;-70
2023/06/02 02:24:23;;;;;;;15.93;3.40;;;;;;;;;;5057939;28;25062;-72
2023/06/02 02:26:49;;;;;;;19.05;3.90;;;;;;;;;;5058003;28;25071;-73
2023/06/02 02:29:15;;;;;;;12.93;3.72;;;;;;;;;;5056411;28;25076;-73
2023/06/02 02:31:41;;;;;;;9.80;3.67;;;;;;;;;;5058435;28;25123;-71
2023/06/02 02:34:07;;;;;;;13.13;3.90;;;;;;;;;;5057693;28;25061;-71
2023/06/02 02:36:33;;;;;;;15.15;3.63;;;;;;;;;;5060145;28;25078;-71
2023/06/02 02:39:00;;;;;;;13.45;4.45;;;;;;;;;;5057252;28;25064;-71
2023/06/02 02:41:26;;;;;;;9.85;3.20;;;;;;;;;;5057123;28;25136;-72
2023/06/02 02:43:52;;;;;;;7.82;2.70;;;;;;;;;;5055809;28;25109;-71
2023/06/02 02:46:18;;;;;;;17.20;4.22;;;;;;;;;;5055674;28;25094;-70
2023/06/02 02:48:44;;;;;;;7.03;2.80;;;;;;;;;;5057140;28;25070;-70
2023/06/02 02:51:10;;;;;;;5.90;2.90;;;;;;;;;;5064939;28;25079;-70
2023/06/02 02:53:36;;;;;;;17.40;3.53;;;;;;;;;;5056062;28;25076;-71
2023/06/02 02:56:02;;;;;;;10.63;3.05;;;;;;;;;;5057922;28;25070;-70
2023/06/02 02:58:31;;;;;;;13.68;3.35;;;;;;;;;;5056000;28;25070;-70
2023/06/02 03:00:57;;;;;;;10.05;2.78;;;;;;;;;;5056834;28;25038;-70
2023/06/02 03:03:23;;;;;;;8.82;2.75;;;;;;;;;;5054237;28;25061;-72
2023/06/02 03:05:49;;;;;;;9.20;2.95;;;;;;;;;;5056416;28;25083;-72
2023/06/02 03:08:17;;;;;;;11.65;3.50;;;;;;;;;;5055183;28;25104;-70
2023/06/02 03:10:43;;;;;;;8.45;3.15;;;;;;;;;;5056389;28;25052;-71
2023/06/02 03:13:09;;;;;;;9.65;2.75;;;;;;;;;;5055929;28;25093;-72
2023/06/02 03:15:36;;;;;;;9.48;2.83;;;;;;;;;;5056203;28;25066;-71
2023/06/02 03:18:03;;;;;;;9.13;4.03;;;;;;;;;;5057085;28;25069;-70
2023/06/02 03:20:29;;;;;;;6.78;2.72;;;;;;;;;;5058387;28;25099;-71
2023/06/02 03:22:55;;;;;;;6.90;3.17;;;;;;;;;;5055507;28;25057;-72
2023/06/02 03:25:22;;;;;;;12.15;3.78;;;;;;;;;;5055347;28;25043;-72
2023/06/02 03:27:48;;;;;;;8.88;3.38;;;;;;;;;;5054650;28;25055;-70
2023/06/02 03:30:14;;;;;;;17.42;3.33;;;;;;;;;;5055275;28;25066;-71
2023/06/02 03:32:40;;;;;;;7.65;3.08;;;;;;;;;;5055955;28;25182;-69
2023/06/02 03:35:06;;;;;;;9.00;2.83;;;;;;;;;;5056103;28;25058;-70
2023/06/02 03:37:32;;;;;;;10.75;2.45;;;;;;;;;;5053818;28;25043;-69
2023/06/02 03:39:58;;;;;;;14.48;3.58;;;;;;;;;;5055752;28;25141;-70
2023/06/02 03:42:24;;;;;;;7.45;3.53;;;;;;;;;;5054907;28;25135;-70
2023/06/02 03:44:50;;;;;;;13.68;2.90;;;;;;;;;;5062138;28;25053;-69
2023/06/02 03:47:16;;;;;;;9.70;2.85;;;;;;;;;;5068113;28;25065;-73
2023/06/02 03:49:42;;;;;;;8.00;2.90;;;;;;;;;;5068529;28;25061;-71
2023/06/02 03:52:08;;;;;;;7.43;2.50;;;;;;;;;;5072201;28;25156;-70
2023/06/02 03:54:34;;;;;;;10.85;2.88;;;;;;;;;;5072956;28;25068;-71
2023/06/02 03:57:00;;;;;;;18.38;3.15;;;;;;;;;;5053138;28;25054;-71
2023/06/02 03:59:26;;;;;;;12.07;2.88;;;;;;;;;;5068018;28;25067;-72
2023/06/02 04:01:52;;;;;;;7.20;3.17;;;;;;;;;;5073432;28;25079;-70
2023/06/02 04:04:18;;;;;;;12.98;2.70;;;;;;;;;;5071904;28;25130;-71
2023/06/02 04:06:44;;;;;;;13.15;3.75;;;;;;;;;;5070568;28;25101;-76
2023/06/02 04:09:14;;;;;;;8.88;2.92;;;;;;;;;;5059059;28;25061;-70
2023/06/02 04:11:40;;;;;;;13.98;3.15;;;;;;;;;;5055424;28;25135;-70
2023/06/02 04:14:06;;;;;;;9.93;2.85;;;;;;;;;;5054398;28;25140;-70
2023/06/02 04:16:32;;;;;;;14.32;2.95;;;;;;;;;;5057370;28;25068;-69
2023/06/02 04:18:58;;;;;;;12.63;2.60;;;;;;;;;;5056074;28;25097;-73
2023/06/02 04:21:24;;;;;;;9.95;2.80;;;;;;;;;;5056644;28;25077;-71
2023/06/02 04:23:50;;;;;;;7.45;2.67;;;;;;;;;;5056997;28;25082;-69
2023/06/02 04:26:16;;;;;;;15.13;3.75;;;;;;;;;;5041045;28;25052;-69
2023/06/02 04:28:42;;;;;;;12.10;2.30;;;;;;;;;;5022804;28;25091;-70
2023/06/02 04:31:11;;;;;;;5.82;2.28;;;;;;;;;;5033449;28;25074;-72
2023/06/02 04:33:37;;;;;;;11.35;2.53;;;;;;;;;;5048628;28;25067;-70
2023/06/02 04:36:03;;;;;;;5.22;2.65;;;;;;;;;;5034917;28;25130;-69
2023/06/02 04:38:29;;;;;;;11.95;2.58;;;;;;;;;;5051662;28;25118;-70
2023/06/02 04:40:57;;;;;;;12.32;2.83;;;;;;;;;;5053405;28;25067;-70
2023/06/02 04:43:23;;;;;;;12.52;2.92;;;;;;;;;;5027272;28;25049;-75
2023/06/02 04:45:49;;;;;;;8.15;2.50;;;;;;;;;;5036914;28;25071;-74
2023/06/02 04:48:15;;;;;;;9.80;2.50;;;;;;;;;;5043254;28;25070;-73
2023/06/02 04:50:41;;;;;;;10.07;3.05;;;;;;;;;;5037914;28;25072;-75
2023/06/02 04:53:07;;;;;;;11.32;3.17;;;;;;;;;;5039504;28;25071;-71
2023/06/02 04:55:33;;;;;;;8.90;2.90;;;;;;;;;;5038431;28;25050;-69
2023/06/02 04:57:59;;;;;;;12.50;2.30;;;;;;;;;;5036361;28;25070;-69
2023/06/02 05:00:25;;;;;;;22.10;4.40;;;;;;;;;;5035508;28;25134;-70
2023/06/02 05:02:51;;;;;;;10.90;2.88;;;;;;;;;;5039896;28;25118;-72
2023/06/02 05:05:17;;;;;;;7.20;2.78;;;;;;;;;;5035450;28;25062;-69
2023/06/02 05:07:43;;;;;;;13.18;2.95;;;;;;;;;;5034044;28;25088;-69
2023/06/02 05:10:09;;;;;;;10.77;3.30;;;;;;;;;;5035734;28;25080;-67
2023/06/02 05:12:36;;;;;;;13.88;2.83;;;;;;;;;;5039500;28;25055;-72
2023/06/02 05:15:02;;;;;;;10.80;2.33;;;;;;;;;;5039688;28;25072;-70
2023/06/02 05:17:28;;;;;;;11.25;2.85;;;;;;;;;;5037328;28;25059;-70
2023/06/02 05:19:54;;;;;;;18.05;4.47;;;;;;;;;;5037574;28;25123;-69
2023/06/02 05:22:21;;;;;;;13.20;2.50;;;;;;;;;;5038486;28;25092;-69
2023/06/02 05:24:46;;;;;;;10.82;2.40;;;;;;;;;;5038549;28;25075;-69
2023/06/02 05:27:13;;;;;;;7.40;1.80;;;;;;;;;;5040213;28;25119;-69
2023/06/02 05:29:39;;;;;;;10.40;2.47;;;;;;;;;;5054114;28;25097;-72
2023/06/02 05:32:07;;;;;;;6.78;2.65;;;;;;;;;;5052154;28;25111;-69
2023/06/02 05:34:33;;;;;;;7.03;1.92;;;;;;;;;;5051278;28;25057;-71
2023/06/02 05:37:00;;;;;;;7.97;2.00;;;;;;;;;;5052253;28;25126;-73
2023/06/02 05:39:26;;;;;;;8.95;2.60;;;;;;;;;;5051681;28;25061;-68
2023/06/02 05:41:52;;;;;;;13.73;3.05;;;;;;;;;;5054370;28;25116;-69
2023/06/02 05:44:18;;;;;;;17.40;2.95;;;;;;;;;;5038293;28;25139;-69
2023/06/02 05:46:44;;;;;;;12.30;2.47;;;;;;;;;;5036730;28;25075;-69
2023/06/02 05:49:10;;;;;;;12.20;3.40;;;;;;;;;;5052493;28;25092;-68
2023/06/02 05:51:36;;;;;;;10.05;2.80;;;;;;;;;;5035852;28;25109;-69
2023/06/02 05:54:02;;;;;;;15.23;3.08;;;;;;;;;;5033495;28;25048;-71
2023/06/02 05:56:28;;;;;;;12.35;3.00;;;;;;;;;;5037308;28;25154;-70
2023/06/02 05:58:54;;;;;;;14.30;2.75;;;;;;;;;;5034342;28;25062;-73
2023/06/02 06:01:20;;;;;;;20.60;3.13;;;;;;;;;;5034828;28;25055;-69
2023/06/02 06:03:46;;;;;;;11.60;2.40;;;;;;;;;;5032840;28;25121;-70
2023/06/02 06:06:12;;;;;;;5.22;2.17;;;;;;;;;;5035938;28;25073;-70
2023/06/02 06:08:39;;;;;;;11.50;2.45;;;;;;;;;;5032103;28;25049;-72
2023/06/02 06:11:05;;;;;;;7.43;2.10;;;;;;;;;;5047971;28;25056;-71
2023/06/02 06:13:31;;;;;;;9.43;2.33;;;;;;;;;;5033360;28;25076;-70
2023/06/02 06:15:57;;;;;;;7.93;2.42;;;;;;;;;;5036561;28;25158;-69
2023/06/02 06:18:23;;;;;;;11.25;2.83;;;;;;;;;;5035074;28;25144;-73
2023/06/02 06:20:49;;;;;;;20.60;2.72;;;;;;;;;;5034930;28;25162;-71
2023/06/02 06:23:15;;;;;;;12.18;3.45;;;;;;;;;;5031649;28;25077;-71
2023/06/02 06:25:41;;;;;;;17.33;2.58;;;;;;;;;;5032917;28;25129;-71
2023/06/02 06:28:07;;;;;;;9.00;2.30;;;;;;;;;;5031695;28;25072;-71
2023/06/02 06:30:33;;;;;;;6.82;2.65;;;;;;;;;;5033650;28;25065;-70
2023/06/02 06:32:59;;;;;;;12.88;3.20;;;;;;;;;;5035094;28;25063;-69
2023/06/02 06:35:26;;;;;;;13.43;2.53;;;;;;;;;;5036092;28;25091;-69
2023/06/02 06:37:51;;;;;;;11.90;2.35;;;;;;;;;;5032172;28;25051;-69
2023/06/02 06:40:17;;;;;;;23.33;2.92;;;;;;;;;;5033155;28;25050;-71
2023/06/02 06:42:43;;;;;;;9.45;2.63;;;;;;;;;;5034257;28;25095;-69
2023/06/02 06:45:10;;;;;;;12.80;3.28;;;;;;;;;;5035444;28;25071;-71
2023/06/02 06:47:36;;;;;;;11.70;2.75;;;;;;;;;;5037970;28;25052;-71
2023/06/02 06:50:01;;;;;;;13.73;2.40;;;;;;;;;;5035939;28;25072;-70
2023/06/02 06:52:27;;;;;;;12.63;3.85;;;;;;;;;;5039028;28;25071;-72
2023/06/02 06:54:53;;;;;;;7.13;2.53;;;;;;;;;;5038899;28;25071;-69
2023/06/02 06:57:19;;;;;;;13.90;3.38;;;;;;;;;;5039143;28;25102;-69
2023/06/02 06:59:47;;;;;;;11.07;2.75;;;;;;;;;;5042687;28;25105;-71
2023/06/02 07:02:13;;;;;;;14.75;2.85;;;;;;;;;;5034555;28;25055;-71
2023/06/02 07:04:39;;;;;;;9.68;2.83;;;;;;;;;;5034127;28;25070;-71
2023/06/02 07:07:05;;;;;;;12.52;3.15;;;;;;;;;;5036624;28;25087;-72
2023/06/02 07:09:32;;;;;;;15.52;3.15;;;;;;;;;;5038180;28;25092;-71
2023/06/02 07:11:58;;;;;;;13.95;2.67;;;;;;;;;;5039409;28;25053;-68
2023/06/02 07:14:24;;;;;;;10.93;2.80;;;;;;;;;;5037357;28;25127;-69
2023/06/02 07:16:54;;;;;;;13.45;2.40;;;;;;;;;;5038359;28;25043;-71
2023/06/02 07:19:20;;;;;;;11.73;2.58;;;;;;;;;;5036534;28;25057;-70
2023/06/02 07:21:46;;;;;;;12.57;2.15;;;;;;;;;;5037529;28;25071;-70
2023/06/02 07:24:12;;;;;;;19.65;3.47;;;;;;;;;;5036713;28;25071;-68
2023/06/02 07:26:37;;;;;;;10.50;2.30;;;;;;;;;;5041421;28;25064;-70
2023/06/02 07:29:03;;;;;;;9.77;2.60;;;;;;;;;;5037928;28;25073;-69
2023/06/02 07:31:29;;;;;;;13.02;2.42;;;;;;;;;;5036209;28;25057;-69
2023/06/02 07:33:56;;;;;;;13.80;3.17;;;;;;;;;;5036822;28;25111;-71
2023/06/02 07:36:23;;;;;;;8.05;1.67;;;;;;;;;;5041363;28;25496;-70
2023/06/02 07:38:49;;;;;;;16.17;2.35;;;;;;;;;;5054127;28;25066;-70
2023/06/02 07:41:15;;;;;;;12.35;2.53;;;;;;;;;;5065515;28;25060;-71
2023/06/02 07:43:41;;;;;;;13.43;2.78;;;;;;;;;;5075995;28;25047;-71
2023/06/02 07:46:08;;;;;;;17.83;2.63;;;;;;;;;;5085491;28;25050;-71
2023/06/02 07:48:35;;;;;;;12.75;2.92;;;;;;;;;;5083431;28;25077;-70
2023/06/02 07:51:01;;;;;;;13.82;3.17;;;;;;;;;;5085049;28;25070;-72
2023/06/02 07:53:27;;;;;;;11.25;2.97;;;;;;;;;;5082113;28;25066;-72
2023/06/02 07:55:53;;;;;;;10.15;2.67;;;;;;;;;;5087508;28;25069;-70
2023/06/02 07:58:19;;;;;;;8.95;2.63;;;;;;;;;;5080498;28;25068;-74
2023/06/02 08:00:45;;;;;;;7.68;2.10;;;;;;;;;;5085462;28;25060;-71
2023/06/02 08:03:11;;;;;;;5.70;2.53;;;;;;;;;;5082340;28;25099;-71
2023/06/02 08:05:37;;;;;;;12.90;2.55;;;;;;;;;;5082867;28;25086;-71
2023/06/02 08:08:03;;;;;;;14.95;2.40;;;;;;;;;;5078399;28;25067;-72
2023/06/02 08:10:29;;;;;;;19.27;3.42;;;;;;;;;;5060653;28;25054;-68
2023/06/02 08:12:55;;;;;;;10.95;2.47;;;;;;;;;;5058481;28;25169;-69
2023/06/02 08:15:21;;;;;;;16.25;2.63;;;;;;;;;;5061829;28;25066;-69
2023/06/02 08:17:47;;;;;;;13.20;2.72;;;;;;;;;;5054868;28;25160;-70
2023/06/02 08:20:16;;;;;;;10.52;2.58;;;;;;;;;;5055930;28;25053;-70
2023/06/02 08:22:42;;;;;;;16.60;2.72;;;;;;;;;;5057082;28;25077;-71
2023/06/02 08:25:08;;;;;;;12.73;2.40;;;;;;;;;;5056602;28;25065;-70
2023/06/02 08:27:34;;;;;;;13.02;2.70;;;;;;;;;;5055703;28;25082;-68
2023/06/02 08:29:59;;;;;;;19.13;3.70;;;;;;;;;;5057348;28;25081;-70
2023/06/02 08:32:26;;;;;;;20.42;3.67;;;;;;;;;;5056263;28;25107;-68
2023/06/02 08:34:55;;;;;;;12.98;2.70;;;;;;;;;;5057255;28;25059;-71
2023/06/02 08:37:21;;;;;;;14.68;2.90;;;;;;;;;;5054400;28;25065;-70
2023/06/02 08:39:48;;;;;;;10.05;2.72;;;;;;;;;;5053007;28;25062;-69
2023/06/02 08:42:15;;;;;;;14.70;3.05;;;;;;;;;;5035565;28;25072;-70
2023/06/02 08:44:41;;;;;;;9.98;2.33;;;;;;;;;;5035510;28;25090;-69
2023/06/02 08:47:10;;;;;;;13.00;2.53;;;;;;;;;;5033258;28;25058;-70
2023/06/02 08:49:36;;;;;;;13.60;3.08;;;;;;;;;;5036134;28;25149;-70
2023/06/02 08:52:29;;;;;;;14.45;3.70;;;;;;;;;;5035138;28;25080;-71
2023/06/02 08:54:56;;;;;;;7.68;2.22;;;;;;;;;;5033751;28;25062;-69
2023/06/02 08:57:22;;;;;;;11.23;2.92;;;;;;;;;;5034986;28;25078;-69
2023/06/02 08:59:49;;;;;;;14.98;3.10;;;;;;;;;;5040218;28;25088;-69
2023/06/02 09:02:15;;;;;;;10.70;2.70;;;;;;;;;;5033269;28;25118;-70
2023/06/02 09:04:42;;;;;;;12.55;2.78;;;;;;;;;;5034479;28;25083;-71
2023/06/02 09:07:19;;;;;;;16.35;3.80;;;;;;;;;;5033049;28;25071;-69
2023/06/02 09:09:46;;;;;;;12.32;2.63;;;;;;;;;;5034603;28;25061;-69
2023/06/02 09:12:14;;;;;;;9.27;3.53;;;;;;;;;;5036236;28;25059;-71
2023/06/02 09:14:40;;;;;;;10.93;2.60;;;;;;;;;;5035806;28;25064;-72
2023/06/02 09:17:25;;;;;;;11.63;2.10;;;;;;;;;;5033909;28;25074;-69
2023/06/02 09:19:53;;;;;;;7.68;2.20;;;;;;;;;;5034645;28;25058;-69
2023/06/02 09:22:19;;;;;;;7.32;2.35;;;;;;;;;;5036400;28;25055;-70
2023/06/02 09:24:45;;;;;;;12.93;3.38;;;;;;;;;;5037807;28;25055;-70
2023/06/02 09:27:14;;;;;;;6.72;2.25;;;;;;;;;;5036383;28;25074;-72
2023/06/02 09:29:40;;;;;;;13.90;3.47;;;;;;;;;;5037428;28;25109;-70
2023/06/02 09:32:17;;;;;;;12.52;2.53;;;;;;;;;;5046487;28;25084;-72
2023/06/02 09:34:45;;;;;;;16.33;3.30;;;;;;;;;;5039934;28;25065;-72
2023/06/02 09:37:12;;;;;;;13.93;2.88;;;;;;;;;;5041406;28;25057;-69
2023/06/02 09:39:42;;;;;;;6.03;2.40;;;;;;;;;;5038587;28;25076;-70
2023/06/02 09:42:08;;;;;;;11.52;2.63;;;;;;;;;;5035377;28;25130;-71
2023/06/02 09:44:34;;;;;;;12.05;2.40;;;;;;;;;;5042144;28;25118;-72
2023/06/02 09:47:02;;;;;;;14.40;3.10;;;;;;;;;;5047669;28;25061;-70
2023/06/02 09:49:38;;;;;;;7.35;2.38;;;;;;;;;;5046775;28;25058;-71
2023/06/02 09:52:24;;;;;;;11.07;2.13;;;;;;;;;;5044999;28;25069;-72
2023/06/02 09:54:50;;;;;;;16.70;2.65;;;;;;;;;;5034678;28;25044;-70
2023/06/02 09:57:17;;;;;;;11.77;3.45;;;;;;;;;;5035906;28;25061;-71
2023/06/02 09:59:43;;;;;;;18.00;3.03;;;;;;;;;;5032574;28;25144;-69
2023/06/02 10:02:10;;;;;;;8.77;2.55;;;;;;;;;;5033887;28;25087;-69
2023/06/02 10:04:36;;;;;;;13.23;3.30;;;;;;;;;;5035794;28;25060;-70
2023/06/02 10:07:17;;;;;;;10.95;2.78;;;;;;;;;;5035530;28;25142;-70
2023/06/02 10:09:51;;;;;;;16.60;2.75;;;;;;;;;;5037804;28;25229;-71
2023/06/02 10:12:24;;;;;;;13.63;2.90;;;;;;;;;;5037998;28;25055;-68
2023/06/02 10:14:50;;;;;;;11.90;3.40;;;;;;;;;;5034324;28;25092;-70
2023/06/02 10:17:23;;;;;;;15.18;2.50;;;;;;;;;;5035282;28;25051;-72
2023/06/02 10:20:03;;;;;;;12.48;3.58;;;;;;;;;;5033647;28;25066;-68
2023/06/02 10:22:48;;;;;;;14.13;2.70;;;;;;;;;;5034305;28;25052;-71
2023/06/02 10:25:30;;;;;;;11.30;2.80;;;;;;;;;;5035334;28;25048;-70
2023/06/02 10:27:56;;;;;;;10.53;2.93;;;;;;;;;;5032979;28;25142;-72
2023/06/02 10:30:23;;;;;;;11.23;2.67;;;;;;;;;;5033238;28;25053;-73
2023/06/02 10:32:50;;;;;;;17.45;3.17;;;;;;;;;;5037543;28;25094;-71
2023/06/02 10:35:16;;;;;;;13.63;2.67;;;;;;;;;;5041829;28;25058;-70
2023/06/02 10:37:43;;;;;;;21.30;3.10;;;;;;;;;;5042171;28;25047;-69
2023/06/02 10:40:10;;;;;;;15.40;3.42;;;;;;;;;;5041426;28;25046;-70
2023/06/02 10:42:37;;;;;;;11.20;2.55;;;;;;;;;;5027939;28;25067;-69
2023/06/02 10:45:21;;;;;;;15.95;3.85;;;;;;;;;;5040214;28;25066;-68
2023/06/02 10:47:47;;;;;;;11.30;3.25;;;;;;;;;;5039565;28;25061;-70
2023/06/02 10:50:14;;;;;;;18.85;4.30;;;;;;;;;;5040434;28;25053;-70
2023/06/02 10:52:59;;;;;;;12.13;3.38;;;;;;;;;;5042219;28;25044;-70
2023/06/02 10:55:27;;;;;;;12.75;2.80;;;;;;;;;;5043612;28;25075;-71
2023/06/02 10:58:05;;;;;;;10.15;2.80;;;;;;;;;;5041391;28;25091;-70
2023/06/02 11:00:40;;;;;;;15.32;3.22;;;;;;;;;;5040666;28;25076;-70
2023/06/02 11:03:15;;;;;;;10.63;2.65;;;;;;;;;;5039085;28;25081;-70
2023/06/02 11:05:41;;;;;;;20.38;3.55;;;;;;;;;;5039063;28;25057;-69
2023/06/02 11:08:21;;;;;;;13.63;3.08;;;;;;;;;;5036750;28;25051;-72
2023/06/02 11:10:50;;;;;;;14.82;3.67;;;;;;;;;;5038956;28;25054;-73
2023/06/02 11:13:20;;;;;;;12.88;3.03;;;;;;;;;;5056589;28;25069;-70
2023/06/02 11:15:58;;;;;;;13.30;3.42;;;;;;;;;;5037464;28;25112;-71
2023/06/02 11:18:33;;;;;;;11.98;3.60;;;;;;;;;;5038735;28;25054;-70
2023/06/02 11:21:03;;;;;;;14.75;3.42;;;;;;;;;;5037837;28;25139;-70
2023/06/02 11:23:29;;;;;;;15.77;3.60;;;;;;;;;;5037086;28;25083;-71
2023/06/02 11:26:02;;;;;;;8.73;3.25;;;;;;;;;;5038712;28;25066;-71
2023/06/02 11:28:28;;;;;;;7.95;2.95;;;;;;;;;;5037226;28;25132;-71
2023/06/02 11:31:14;;;;;;;9.90;2.85;;;;;;;;;;5037358;28;25078;-70
2023/06/02 11:33:48;;;;;;;13.77;4.07;;;;;;;;;;5036452;28;26185;-71
2023/06/02 11:36:14;;;;;;;12.70;3.80;;;;;;;;;;5008731;28;25076;-71
2023/06/02 11:38:40;;;;;;;9.55;3.75;;;;;;;;;;5054214;28;25043;-71
2023/06/02 11:41:10;;;;;;;11.15;3.20;;;;;;;;;;5054316;28;25161;-71
2023/06/02 11:43:36;;;;;;;12.88;3.65;;;;;;;;;;5056340;28;25069;-72
2023/06/02 11:46:09;;;;;;;14.85;3.33;;;;;;;;;;5057577;28;25056;-71
2023/06/02 11:48:38;;;;;;;8.45;3.08;;;;;;;;;;5056360;28;25135;-73
2023/06/02 11:51:04;;;;;;;13.52;3.25;;;;;;;;;;5052887;28;25067;-72
2023/06/02 11:53:30;;;;;;;11.13;3.88;;;;;;;;;;5025600;28;25077;-69
2023/06/02 11:55:56;;;;;;;11.27;3.70;;;;;;;;;;5040694;28;25102;-70
2023/06/02 11:58:22;;;;;;;8.32;2.92;;;;;;;;;;5040894;28;25118;-69
2023/06/02 12:00:49;;;;;;;14.93;3.58;;;;;;;;;;5040227;28;25172;-70
2023/06/02 12:03:15;;;;;;;10.20;3.03;;;;;;;;;;5046093;28;25075;-71
2023/06/02 12:05:44;;;;;;;15.13;3.63;;;;;;;;;;5050645;28;25067;-71
2023/06/02 12:08:20;;;;;;;13.40;3.47;;;;;;;;;;5046219;28;25091;-72
2023/06/02 12:10:47;;;;;;;12.73;3.75;;;;;;;;;;5056869;28;25084;-72
2023/06/02 12:13:29;;;;;;;14.70;4.18;;;;;;;;;;5052637;28;25054;-70
2023/06/02 12:15:55;;;;;;;13.90;3.72;;;;;;;;;;5072831;28;25099;-72
2023/06/02 12:18:32;;;;;;;12.95;4.00;;;;;;;;;;5049310;28;25104;-71
2023/06/02 12:20:59;;;;;;;11.38;3.60;;;;;;;;;;5040184;28;25065;-70
2023/06/02 12:23:41;;;;;;;16.42;3.78;;;;;;;;;;5043085;28;25077;-73
2023/06/02 12:26:07;;;;;;;11.37;3.50;;;;;;;;;;5058349;28;25064;-70
2023/06/02 12:28:33;;;;;;;17.00;3.90;;;;;;;;;;5062688;28;25089;-71
2023/06/02 12:30:59;;;;;;;16.80;4.47;;;;;;;;;;5059474;28;25070;-71
2023/06/02 12:33:25;;;;;;;12.50;4.35;;;;;;;;;;5059829;28;25073;-72
2023/06/02 12:35:51;;;;;;;11.23;4.20;;;;;;;;;;5063858;28;25061;-70
2023/06/02 12:38:17;;;;;;;14.90;3.83;;;;;;;;;;5055871;28;25101;-71
2023/06/02 12:40:43;;;;;;;8.32;3.38;;;;;;;;;;5056330;28;25161;-75
2023/06/02 12:43:09;;;;;;;7.57;3.72;;;;;;;;;;5055007;28;25099;-71
2023/06/02 12:45:35;;;;;;;16.77;3.95;;;;;;;;;;5055348;28;25147;-70
2023/06/02 12:48:02;;;;;;;15.50;4.45;;;;;;;;;;5055240;28;25088;-72
2023/06/02 12:50:29;;;;;;;14.98;3.90;;;;;;;;;;5053486;28;25055;-70
2023/06/02 12:52:55;;;;;;;10.20;3.83;;;;;;;;;;5053196;28;25063;-71
2023/06/02 12:55:21;;;;;;;12.57;3.70;;;;;;;;;;5036141;28;25069;-71
2023/06/02 12:57:47;;;;;;;22.17;4.97;;;;;;;;;;5053086;28;25056;-70
2023/06/02 13:00:14;;;;;;;10.88;3.63;;;;;;;;;;5053815;28;25135;-72
2023/06/02 13:02:41;;;;;;;16.08;3.75;;;;;;;;;;5056277;28;25075;-71
2023/06/02 13:05:08;;;;;;;14.38;4.05;;;;;;;;;;5064820;28;25075;-70
2023/06/02 13:07:35;;;;;;;14.27;4.10;;;;;;;;;;5068777;28;25052;-72
2023/06/02 13:10:01;;;;;;;12.65;3.58;;;;;;;;;;5061012;28;25071;-72
2023/06/02 13:12:27;;;;;;;10.95;3.78;;;;;;;;;;5053769;28;25068;-72
2023/06/02 13:14:53;;;;;;;10.90;3.78;;;;;;;;;;5055232;28;25074;-69
2023/06/02 13:17:19;;;;;;;18.35;4.63;;;;;;;;;;5052545;28;25068;-71
2023/06/02 13:19:46;;;;;;;13.75;3.92;;;;;;;;;;5054076;28;25069;-71
2023/06/02 13:22:13;;;;;;;12.90;3.63;;;;;;;;;;5052375;28;25052;-70
2023/06/02 13:24:39;;;;;;;15.95;3.67;;;;;;;;;;5052405;28;25065;-71
2023/06/02 13:27:06;;;;;;;12.63;3.67;;;;;;;;;;5053103;28;25056;-71
2023/06/02 13:29:31;;;;;;;12.25;4.38;;;;;;;;;;5054668;28;25065;-72
2023/06/02 13:31:57;;;;;;;16.08;4.07;;;;;;;;;;5055774;28;25070;-72
2023/06/02 13:34:24;;;;;;;13.30;3.70;;;;;;;;;;5051717;28;25074;-72
2023/06/02 13:36:51;;;;;;;13.13;4.60;;;;;;;;;;5039042;28;25058;-71
2023/06/02 13:39:16;;;;;;;13.00;4.25;;;;;;;;;;5054047;28;25061;-71
2023/06/02 13:41:43;;;;;;;14.98;4.18;;;;;;;;;;5054641;28;25050;-70
2023/06/02 13:44:11;;;;;;;13.25;6.40;;;;;;;;;;5051959;28;25063;-70
2023/06/02 13:46:39;;;;;;;17.20;5.22;;;;;;;;;;5054332;28;25064;-70
2023/06/02 13:49:05;;;;;;;13.00;3.90;;;;;;;;;;5051364;28;25076;-70
2023/06/02 13:51:31;;;;;;;16.45;3.95;;;;;;;;;;5053538;28;25052;-71
2023/06/02 13:53:57;;;;;;;14.50;4.28;;;;;;;;;;5052594;28;25076;-70
2023/06/02 13:56:23;;;;;;;13.80;4.05;;;;;;;;;;5054232;28;25112;-72
2023/06/02 13:58:49;;;;;;;10.88;4.28;;;;;;;;;;5054274;28;25050;-69
2023/06/02 14:01:15;;;;;;;13.43;4.50;;;;;;;;;;5052236;28;25051;-70
2023/06/02 14:03:41;;;;;;;13.05;3.53;;;;;;;;;;5051864;28;25069;-71
2023/06/02 14:06:07;;;;;;;12.82;4.45;;;;;;;;;;5054208;28;25052;-69
2023/06/02 14:08:33;;;;;;;11.30;3.95;;;;;;;;;;5053414;28;25086;-70
2023/06/02 14:10:59;;;;;;;14.23;4.35;;;;;;;;;;5039274;28;25089;-71
2023/06/02 14:13:26;;;;;;;15.30;4.40;;;;;;;;;;5059047;28;25173;-71
2023/06/02 14:15:52;;;;;;;19.00;4.78;;;;;;;;;;5060586;28;25070;-74
2023/06/02 14:18:19;;;;;;;12.95;3.85;;;;;;;;;;5054869;28;25100;-70
2023/06/02 14:20:45;;;;;;;16.08;4.22;;;;;;;;;;5053702;28;25133;-72
2023/06/02 14:23:11;;;;;;;12.80;3.88;;;;;;;;;;5051161;28;25045;-69
2023/06/02 14:25:37;;;;;;;13.55;3.55;;;;;;;;;;5048827;28;25162;-70
2023/06/02 14:28:03;;;;;;;10.80;3.97;;;;;;;;;;5052930;28;25079;-69
2023/06/02 14:30:29;;;;;;;15.82;5.03;;;;;;;;;;5054151;28;25153;-70
2023/06/02 14:32:55;;;;;;;9.85;3.33;;;;;;;;;;5051882;28;25076;-71
2023/06/02 14:35:21;;;;;;;14.18;4.80;;;;;;;;;;5053550;28;25068;-71